createdAt,value
2023-05-24T05:00:16.805Z,6.40
2023-05-24T05:03:03.851Z,6.70
2023-05-24T05:05:50.455Z,7.00
2023-05-24T05:08:36.827Z,5.68
2023-05-24T05:11:23.552Z,6.15
2023-05-24T05:14:10.102Z,6.68
2023-05-24T05:23:31.477Z,6.18
2023-05-24T05:26:17.688Z,5.72
2023-05-24T05:29:06.025Z,7.10
2023-05-24T05:31:57.454Z,6.47
2023-05-24T05:34:43.904Z,5.68
2023-05-24T05:37:31.420Z,6.05
2023-05-24T05:40:19.441Z,6.15
2023-05-24T05:43:05.856Z,6.28
2023-05-24T05:45:52.225Z,6.30
2023-05-24T05:48:38.480Z,6.20
2023-05-24T05:51:25.057Z,5.82
2023-05-24T05:54:15.422Z,4.60
2023-05-24T05:59:49.897Z,5.03
2023-05-24T06:02:36.450Z,5.13
2023-05-24T06:05:22.724Z,5.20
2023-05-24T06:08:09.127Z,5.28
2023-05-24T06:10:55.468Z,4.53
2023-05-24T06:13:43.024Z,4.93
2023-05-24T06:16:29.481Z,4.57
2023-05-24T06:19:16.594Z,4.93
2023-05-24T06:22:03.022Z,4.30
2023-05-24T06:24:50.190Z,4.18
2023-05-24T06:27:36.768Z,4.63
2023-05-24T06:30:24.415Z,4.38
2023-05-24T06:33:11.305Z,5.07
2023-05-24T06:35:57.469Z,4.32
2023-05-24T06:38:43.833Z,5.07
2023-05-24T06:41:30.379Z,4.78
2023-05-24T06:44:16.674Z,4.63
2023-05-24T06:47:05.890Z,4.20
2023-05-24T06:49:53.371Z,4.53
2023-05-24T06:52:40.062Z,3.70
2023-05-24T06:55:26.503Z,2.97
2023-05-24T06:58:14.458Z,3.33
2023-05-24T07:01:00.961Z,3.40
2023-05-24T07:13:37.899Z,3.35
2023-05-24T07:20:42.344Z,3.47
2023-05-24T07:23:28.903Z,3.83
2023-05-24T07:26:15.263Z,3.92
2023-05-24T07:29:01.845Z,3.33
2023-05-24T07:31:48.535Z,3.85
2023-05-24T07:34:36.451Z,3.47
2023-05-24T07:37:24.296Z,3.75
2023-05-24T07:40:12.293Z,4.07
2023-05-24T07:46:40.906Z,4.03
2023-05-24T07:50:13.865Z,3.33
2023-05-24T07:53:34.955Z,5.57
2023-05-24T07:56:24.721Z,3.58
2023-05-24T07:59:10.985Z,3.67
2023-05-24T08:02:01.423Z,4.15
2023-05-24T08:07:35.640Z,3.03
2023-05-24T08:10:23.320Z,3.13
2023-05-24T08:13:09.957Z,3.22
2023-05-24T08:15:58.447Z,3.22
2023-05-24T08:18:44.634Z,2.70
2023-05-24T08:21:33.770Z,3.28
2023-05-24T08:24:20.940Z,3.05
2023-05-24T08:27:07.445Z,3.05
2023-05-24T08:29:55.470Z,2.85
2023-05-24T08:32:43.553Z,3.00
2023-05-24T08:35:30.271Z,2.85
2023-05-24T08:38:17.857Z,2.83
2023-05-24T08:41:06.944Z,2.75
2023-05-24T08:43:54.869Z,3.50
2023-05-24T08:46:41.254Z,4.63
2023-05-24T09:43:58.366Z,3.38
2023-05-24T12:05:31.612Z,2.45
2023-05-24T12:08:18.242Z,3.00
2023-05-24T12:11:05.199Z,3.05
2023-05-24T12:14:48.426Z,2.85
2023-05-24T12:17:38.966Z,2.80
2023-05-24T12:20:30.736Z,2.58
2023-05-24T12:23:17.893Z,2.42
2023-05-24T12:26:06.386Z,2.40
2023-05-24T12:28:55.136Z,2.50
2023-05-24T12:31:42.864Z,3.08
2023-05-24T12:34:32.356Z,2.38
2023-05-24T12:37:20.376Z,2.63
2023-05-24T12:40:17.329Z,2.40
2023-05-24T12:43:05.249Z,2.50
2023-05-24T12:45:53.594Z,2.47
2023-05-24T12:48:40.674Z,2.05
2023-05-24T12:51:27.048Z,2.28
2023-05-24T12:54:14.846Z,2.33
2023-05-24T12:57:02.762Z,2.25
2023-05-24T12:59:49.352Z,3.20
2023-05-24T13:02:38.137Z,2.58
2023-05-24T13:05:31.789Z,3.00
2023-05-24T13:08:18.586Z,2.85
2023-05-24T13:11:09.544Z,1.80
2023-05-24T13:14:02.661Z,2.50
2023-05-24T13:16:49.649Z,2.45
2023-05-24T13:19:36.597Z,2.28
2023-05-24T13:22:22.846Z,2.63
2023-05-24T13:25:10.317Z,2.65
2023-05-24T13:27:59.455Z,2.20
2023-05-24T13:30:46.275Z,2.30
2023-05-24T13:43:22.507Z,1.60
2023-05-24T13:46:47.151Z,2.17
2023-05-24T13:49:33.891Z,2.00
2023-05-24T13:52:22.829Z,2.55
2023-05-24T13:55:10.782Z,2.25
2023-05-24T13:57:57.378Z,2.33
2023-05-24T14:00:44.152Z,1.85
2023-05-24T14:03:32.029Z,2.45
2023-05-24T14:06:20.913Z,2.17
2023-05-24T14:09:08.440Z,2.25
2023-05-24T14:11:55.494Z,2.72
2023-05-24T14:15:26.524Z,2.20
2023-05-24T14:18:25.895Z,2.30
2023-05-24T14:21:13.492Z,3.03
2023-05-24T14:23:59.700Z,2.33
2023-05-24T14:26:47.515Z,2.30
2023-05-24T14:29:34.129Z,2.40
2023-05-24T14:32:20.288Z,2.40
2023-05-24T14:35:07.457Z,2.65
2023-05-24T14:37:55.311Z,2.50
2023-05-24T14:40:42.210Z,2.08
2023-05-24T14:43:28.851Z,3.15
2023-05-24T14:46:15.454Z,3.63
2023-05-24T14:49:02.508Z,2.50
2023-05-24T14:51:49.541Z,2.40
2023-05-24T14:54:37.290Z,2.20
2023-05-24T14:57:23.604Z,2.65
2023-05-24T15:14:35.777Z,2.17
2023-05-24T15:17:22.525Z,2.70
2023-05-24T15:20:09.735Z,2.38
2023-05-24T15:22:56.260Z,2.08
2023-05-24T15:25:43.062Z,3.03
2023-05-24T15:28:29.426Z,4.22
2023-05-24T15:31:17.354Z,2.50
2023-05-24T15:34:04.898Z,2.67
2023-05-24T15:36:51.250Z,2.75
2023-05-24T15:39:37.559Z,2.35
2023-05-24T15:42:24.730Z,1.95
2023-05-24T15:45:12.392Z,2.08
2023-05-24T15:48:00.322Z,2.03
2023-05-24T15:53:36.706Z,2.37
2023-05-24T15:56:23.366Z,2.72
2023-05-24T15:59:10.124Z,2.58
2023-05-24T16:01:56.532Z,2.70
2023-05-24T16:04:45.506Z,2.40
2023-05-24T16:07:32.139Z,2.97
2023-05-24T16:12:26.133Z,2.25
2023-05-24T16:59:33.763Z,2.45
2023-05-24T17:02:20.027Z,2.33
2023-05-24T17:05:07.626Z,2.25
2023-05-24T17:07:56.323Z,2.00
2023-05-24T17:10:44.216Z,2.72
2023-05-24T17:13:36.703Z,2.35
2023-05-24T17:16:24.847Z,2.33
2023-05-24T17:19:13.914Z,2.08
2023-05-24T17:22:00.836Z,3.75
2023-05-24T17:24:50.552Z,1.80
2023-05-24T17:27:38.325Z,2.20
2023-05-24T17:30:28.378Z,2.22
2023-05-24T17:36:04.212Z,2.30
2023-05-24T17:38:50.721Z,1.85
2023-05-24T17:41:37.469Z,2.17
2023-05-24T17:44:24.220Z,2.33
2023-05-24T17:47:11.897Z,2.95
2023-05-24T17:49:59.232Z,2.60
2023-05-24T17:52:45.773Z,2.47
2023-05-24T17:55:31.886Z,2.40
2023-05-24T17:58:18.328Z,2.53
2023-05-24T18:01:06.061Z,2.53
2023-05-24T18:03:52.446Z,1.90
2023-05-24T18:06:47.370Z,2.78
2023-05-24T18:09:34.072Z,2.35
2023-05-24T18:12:22.897Z,2.55
2023-05-24T18:15:09.834Z,2.78
2023-05-24T18:17:56.578Z,2.42
2023-05-24T18:20:51.912Z,2.47
2023-05-24T18:23:39.796Z,2.35
2023-05-24T18:26:27.242Z,3.03
2023-05-24T18:29:13.739Z,2.92
2023-05-24T18:32:00.413Z,2.50
2023-05-24T18:34:46.898Z,2.30
2023-05-24T18:37:33.201Z,2.42
2023-05-24T18:40:21.233Z,2.30
2023-05-24T18:43:07.631Z,2.53
2023-05-24T18:45:53.660Z,2.58
2023-05-24T18:48:41.365Z,2.70
2023-05-24T18:51:27.748Z,2.40
2023-05-24T18:54:13.841Z,2.40
2023-05-24T18:57:04.521Z,2.10
2023-05-24T18:59:51.313Z,2.45
2023-05-24T19:47:33.256Z,3.13
2023-05-24T19:50:19.921Z,2.55
2023-05-24T19:53:06.280Z,3.20
2023-05-24T19:55:52.924Z,3.08
2023-05-24T19:58:39.796Z,2.97
2023-05-24T20:20:20.440Z,2.95
2023-05-24T20:23:06.945Z,3.10
2023-05-24T20:25:53.485Z,2.97
2023-05-24T20:28:40.009Z,3.10
2023-05-24T20:31:26.452Z,3.15
2023-05-24T20:34:13.210Z,2.67
2023-05-24T20:37:00.786Z,3.45
2023-05-24T20:39:47.186Z,2.85
2023-05-24T20:42:33.978Z,4.53
2023-05-24T20:45:21.408Z,3.50
2023-05-24T20:48:08.156Z,3.17
2023-05-24T20:50:54.843Z,3.10
2023-05-24T20:53:42.626Z,3.75
2023-05-24T20:56:28.926Z,3.25
2023-05-24T20:59:15.342Z,3.63
2023-05-24T21:02:01.960Z,4.05
2023-05-24T21:04:48.196Z,3.20
2023-05-24T21:07:34.564Z,3.30
2023-05-24T21:10:22.869Z,3.08
2023-05-24T21:13:09.255Z,3.67
2023-05-24T21:15:55.767Z,3.92
2023-05-24T21:18:42.298Z,3.85
2023-05-24T21:21:28.633Z,3.08
2023-05-24T21:24:15.884Z,4.28
2023-05-24T21:27:03.649Z,4.07
2023-05-24T21:29:50.071Z,3.22
2023-05-24T21:32:36.297Z,3.97
2023-05-24T21:35:22.949Z,3.63
2023-05-24T21:38:10.116Z,4.57
2023-05-24T21:40:56.445Z,3.63
2023-05-24T21:43:44.527Z,4.00
2023-05-24T21:46:33.568Z,3.92
2023-05-24T21:49:20.128Z,4.47
2023-05-24T21:52:06.550Z,4.82
2023-05-24T21:54:52.628Z,3.92
2023-05-24T21:57:38.881Z,3.92
2023-05-24T22:00:28.114Z,3.95
2023-05-24T22:03:15.413Z,3.67
2023-05-24T22:06:02.056Z,4.03
2023-05-24T22:08:48.735Z,4.03
2023-05-24T22:11:35.492Z,4.47
2023-05-24T22:14:21.843Z,3.97
